Time,TemperatureF,DewpointF,PressureIn,WindDirection,WindDirectionDegrees,WindSpeedMPH,WindSpeedGustMPH,Humidity,HourlyPrecipIn,Conditions,Clouds,dailyrainin,SoftwareType,DateUTC
2013-01-09 00:00:00,34.9,28.1,30.41,East,90,2.5,4.9,76,0.00,,,0.00,WUHU216HW,2013-01-09 05:00:00,
2013-01-09 00:03:00,34.9,28.1,30.40,ESE,113,3.1,4.5,76,0.00,,,0.00,WUHU216HW,2013-01-09 05:03:00,
2013-01-09 00:08:00,34.7,27.9,30.40,ESE,113,3.8,4.0,76,0.00,,,0.00,WUHU216HW,2013-01-09 05:08:00,
2013-01-09 00:13:00,34.7,27.9,30.40,SE,135,7.4,7.4,76,0.00,,,0.00,WUHU216HW,2013-01-09 05:13:00,
2013-01-09 00:18:00,34.7,27.9,30.40,SSE,158,4.3,7.4,76,0.00,,,0.00,WUHU216HW,2013-01-09 05:18:00,
2013-01-09 00:23:00,34.6,27.7,30.40,SE,135,2.2,5.1,76,0.00,,,0.00,WUHU216HW,2013-01-09 05:23:00,
2013-01-09 00:28:00,34.6,28.0,30.40,South,180,2.7,5.1,77,0.00,,,0.00,WUHU216HW,2013-01-09 05:28:00,
2013-01-09 00:33:00,34.4,27.8,30.40,East,90,2.2,5.1,77,0.00,,,0.00,WUHU216HW,2013-01-09 05:33:00,
2013-01-09 00:38:00,34.2,27.6,30.39,ESE,113,3.4,5.1,77,0.00,,,0.00,WUHU216HW,2013-01-09 05:38:00,
2013-01-09 00:43:00,34.2,27.6,30.39,SSE,158,2.2,4.0,77,0.00,,,0.00,WUHU216HW,2013-01-09 05:43:00,
2013-01-09 00:48:00,34.0,27.5,30.39,SSW,203,2.0,6.0,77,0.00,,,0.00,WUHU216HW,2013-01-09 05:48:00,
2013-01-09 00:53:00,34.0,27.5,30.39,SE,135,2.2,6.0,77,0.00,,,0.00,WUHU216HW,2013-01-09 05:53:00,
2013-01-09 00:58:00,34.0,27.8,30.38,South,180,3.4,3.6,78,0.00,,,0.00,WUHU216HW,2013-01-09 05:58:00,
2013-01-09 01:03:00,34.0,27.8,30.39,ESE,113,3.4,4.0,78,0.00,,,0.00,WUHU216HW,2013-01-09 06:03:00,
2013-01-09 01:08:00,34.0,27.8,30.38,East,90,2.2,5.4,78,0.00,,,0.00,WUHU216HW,2013-01-09 06:08:00,
2013-01-09 01:13:00,33.8,27.6,30.38,ESE,113,3.4,5.4,78,0.00,,,0.00,WUHU216HW,2013-01-09 06:13:00,
2013-01-09 01:18:00,33.8,27.6,30.38,ESE,113,2.0,5.1,78,0.00,,,0.00,WUHU216HW,2013-01-09 06:18:00,
2013-01-09 01:23:00,33.7,27.5,30.39,ESE,113,1.6,4.0,78,0.00,,,0.00,WUHU216HW,2013-01-09 06:23:00,
2013-01-09 01:28:00,33.5,27.3,30.39,ESE,113,2.0,3.1,78,0.00,,,0.00,WUHU216HW,2013-01-09 06:28:00,
2013-01-09 01:33:00,33.5,27.3,30.39,ESE,113,3.4,3.4,78,0.00,,,0.00,WUHU216HW,2013-01-09 06:33:00,
2013-01-09 01:38:00,33.5,27.3,30.40,SSE,158,1.8,3.4,78,0.00,,,0.00,WUHU216HW,2013-01-09 06:38:00,
2013-01-09 01:43:00,33.7,27.5,30.39,SSE,158,2.7,3.4,78,0.00,,,0.00,WUHU216HW,2013-01-09 06:43:00,
2013-01-09 01:48:00,33.7,27.5,30.39,East,90,2.5,3.4,78,0.00,,,0.00,WUHU216HW,2013-01-09 06:48:00,
2013-01-09 01:53:00,33.7,27.5,30.38,South,180,2.5,3.4,78,0.00,,,0.00,WUHU216HW,2013-01-09 06:53:00,
2013-01-09 01:58:00,33.8,27.6,30.38,SE,135,2.7,3.4,78,0.00,,,0.00,WUHU216HW,2013-01-09 06:58:00,
2013-01-09 02:03:00,34.0,28.1,30.38,SSW,203,2.5,3.4,79,0.00,,,0.00,WUHU216HW,2013-01-09 07:03:00,
2013-01-09 02:08:00,34.4,28.2,30.38,ESE,113,1.1,3.4,78,0.00,,,0.00,WUHU216HW,2013-01-09 07:08:00,
2013-01-09 02:13:00,34.6,28.4,30.38,SE,135,2.5,3.4,78,0.00,,,0.00,WUHU216HW,2013-01-09 07:13:00,
2013-01-09 02:18:00,34.9,28.7,30.38,SSE,158,2.2,3.4,78,0.00,,,0.00,WUHU216HW,2013-01-09 07:18:00,
2013-01-09 02:23:00,34.9,28.7,30.38,SE,135,1.8,3.8,78,0.00,,,0.00,WUHU216HW,2013-01-09 07:23:00,
2013-01-09 02:28:00,34.7,28.2,30.38,SE,135,2.5,4.3,77,0.00,,,0.00,WUHU216HW,2013-01-09 07:28:00,
2013-01-09 02:33:00,34.7,28.2,30.38,SSE,158,2.2,4.3,77,0.00,,,0.00,WUHU216HW,2013-01-09 07:33:00,
2013-01-09 02:38:00,34.7,28.5,30.38,ESE,113,3.4,3.4,78,0.00,,,0.00,WUHU216HW,2013-01-09 07:38:00,
2013-01-09 02:43:00,34.9,28.4,30.37,ESE,113,4.5,4.5,77,0.00,,,0.00,WUHU216HW,2013-01-09 07:43:00,
2013-01-09 02:48:00,34.9,28.4,30.37,South,180,3.4,4.5,77,0.00,,,0.00,WUHU216HW,2013-01-09 07:48:00,
2013-01-09 02:53:00,35.1,28.5,30.37,SE,135,4.0,4.0,77,0.00,,,0.00,WUHU216HW,2013-01-09 07:53:00,
2013-01-09 02:58:00,35.3,28.7,30.37,SE,135,3.1,5.4,77,0.00,,,0.00,WUHU216HW,2013-01-09 07:58:00,
2013-01-09 03:03:00,35.3,28.7,30.37,South,180,4.0,5.4,77,0.00,,,0.00,WUHU216HW,2013-01-09 08:03:00,
2013-01-09 03:08:00,35.1,28.3,30.37,SSE,158,2.0,4.9,76,0.00,,,0.00,WUHU216HW,2013-01-09 08:08:00,
2013-01-09 03:13:00,35.1,28.3,30.37,SE,135,3.4,5.1,76,0.00,,,0.00,WUHU216HW,2013-01-09 08:13:00,
2013-01-09 03:18:00,35.1,28.5,30.37,ESE,113,2.2,5.1,77,0.00,,,0.00,WUHU216HW,2013-01-09 08:18:00,
2013-01-09 03:23:00,35.1,28.5,30.37,South,180,2.9,4.5,77,0.00,,,0.00,WUHU216HW,2013-01-09 08:23:00,
2013-01-09 03:28:00,35.1,28.3,30.37,East,90,2.7,4.5,76,0.00,,,0.00,WUHU216HW,2013-01-09 08:28:00,
2013-01-09 03:33:00,34.9,28.1,30.37,SE,135,2.0,5.1,76,0.00,,,0.00,WUHU216HW,2013-01-09 08:33:00,
2013-01-09 03:38:00,34.9,28.1,30.36,ESE,113,2.2,5.1,76,0.00,,,0.00,WUHU216HW,2013-01-09 08:38:00,
2013-01-09 03:43:00,34.9,28.1,30.36,South,180,2.2,4.5,76,0.00,,,0.00,WUHU216HW,2013-01-09 08:43:00,
2013-01-09 03:48:00,34.9,28.1,30.36,SSE,158,5.6,5.6,76,0.00,,,0.00,WUHU216HW,2013-01-09 08:48:00,
2013-01-09 03:53:00,35.1,28.3,30.36,SE,135,4.7,6.3,76,0.00,,,0.00,WUHU216HW,2013-01-09 08:53:00,
2013-01-09 03:58:00,35.3,28.5,30.36,SSE,158,4.3,6.3,76,0.00,,,0.00,WUHU216HW,2013-01-09 08:58:00,
2013-01-09 04:03:00,35.3,28.5,30.36,ESE,113,5.6,5.8,76,0.00,,,0.00,WUHU216HW,2013-01-09 09:03:00,
2013-01-09 04:08:00,35.1,28.3,30.36,SW,225,6.5,6.5,76,0.00,,,0.00,WUHU216HW,2013-01-09 09:08:00,
2013-01-09 04:13:00,35.1,28.3,30.36,SE,135,3.8,6.5,76,0.00,,,0.00,WUHU216HW,2013-01-09 09:13:00,
2013-01-09 04:18:00,35.3,28.5,30.35,SE,135,3.8,7.4,76,0.00,,,0.00,WUHU216HW,2013-01-09 09:18:00,
2013-01-09 04:23:00,35.3,28.5,30.36,SE,135,4.0,7.4,76,0.00,,,0.00,WUHU216HW,2013-01-09 09:23:00,
2013-01-09 04:28:00,35.3,28.5,30.36,SE,135,3.4,5.4,76,0.00,,,0.00,WUHU216HW,2013-01-09 09:28:00,
2013-01-09 04:33:00,35.3,28.5,30.35,SSE,158,4.3,5.4,76,0.00,,,0.00,WUHU216HW,2013-01-09 09:33:00,
2013-01-09 04:38:00,35.1,27.9,30.35,South,180,3.6,5.4,75,0.00,,,0.00,WUHU216HW,2013-01-09 09:38:00,
2013-01-09 04:43:00,35.3,28.1,30.35,South,180,3.6,4.9,75,0.00,,,0.00,WUHU216HW,2013-01-09 09:43:00,
2013-01-09 04:48:00,35.3,27.7,30.34,SSE,158,3.8,4.9,74,0.00,,,0.00,WUHU216HW,2013-01-09 09:48:00,
2013-01-09 04:53:00,35.3,27.7,30.33,ENE,68,4.9,4.9,74,0.00,,,0.00,WUHU216HW,2013-01-09 09:53:00,
2013-01-09 04:58:00,35.5,27.9,30.33,SSE,158,4.0,4.9,74,0.00,,,0.00,WUHU216HW,2013-01-09 09:58:00,
2013-01-09 05:03:00,35.6,28.1,30.32,SE,135,4.0,4.9,74,0.00,,,0.00,WUHU216HW,2013-01-09 10:03:00,
2013-01-09 05:08:00,35.8,28.3,30.32,SSE,158,4.0,4.9,74,0.00,,,0.00,WUHU216HW,2013-01-09 10:08:00,
2013-01-09 05:13:00,36.0,28.2,30.32,SSW,203,4.3,4.3,73,0.00,,,0.00,WUHU216HW,2013-01-09 10:13:00,
2013-01-09 05:18:00,36.2,28.6,30.32,SE,135,4.3,5.6,74,0.00,,,0.00,WUHU216HW,2013-01-09 10:18:00,
2013-01-09 05:23:00,36.2,28.4,30.32,ESE,113,4.7,5.6,73,0.00,,,0.00,WUHU216HW,2013-01-09 10:23:00,
2013-01-09 05:28:00,36.4,28.5,30.33,SSE,158,3.4,5.8,73,0.00,,,0.00,WUHU216HW,2013-01-09 10:28:00,
2013-01-09 05:33:00,36.2,28.4,30.32,East,90,5.4,5.8,73,0.00,,,0.00,WUHU216HW,2013-01-09 10:33:00,
2013-01-09 05:38:00,36.0,28.2,30.31,SSE,158,5.4,5.4,73,0.00,,,0.00,WUHU216HW,2013-01-09 10:38:00,
2013-01-09 05:43:00,36.0,28.2,30.32,SSE,158,2.7,5.4,73,0.00,,,0.00,WUHU216HW,2013-01-09 10:43:00,
2013-01-09 05:48:00,36.2,28.4,30.32,SE,135,1.8,4.5,73,0.00,,,0.00,WUHU216HW,2013-01-09 10:48:00,
2013-01-09 05:53:00,36.4,28.5,30.33,East,90,4.9,6.3,73,0.00,,,0.00,WUHU216HW,2013-01-09 10:53:00,
2013-01-09 05:58:00,36.4,28.5,30.32,SSE,158,4.3,6.3,73,0.00,,,0.00,WUHU216HW,2013-01-09 10:58:00,
2013-01-09 06:03:00,36.5,28.7,30.33,SE,135,3.4,5.8,73,0.00,,,0.00,WUHU216HW,2013-01-09 11:03:00,
2013-01-09 06:08:00,36.5,28.4,30.32,SSE,158,2.5,3.6,72,0.00,,,0.00,WUHU216HW,2013-01-09 11:08:00,
2013-01-09 06:13:00,36.5,28.4,30.32,ENE,68,5.6,6.9,72,0.00,,,0.00,WUHU216HW,2013-01-09 11:13:00,
2013-01-09 06:18:00,36.7,28.5,30.31,ESE,113,4.5,6.9,72,0.00,,,0.00,WUHU216HW,2013-01-09 11:18:00,
2013-01-09 06:23:00,37.1,28.6,30.31,ENE,68,1.8,4.5,71,0.00,,,0.00,WUHU216HW,2013-01-09 11:23:00,
2013-01-09 06:28:00,37.3,28.8,30.31,SE,135,3.4,6.3,71,0.00,,,0.00,WUHU216HW,2013-01-09 11:28:00,
2013-01-09 06:33:00,37.6,29.1,30.31,ESE,113,3.4,6.3,71,0.00,,,0.00,WUHU216HW,2013-01-09 11:33:00,
2013-01-09 06:38:00,38.0,29.4,30.31,ESE,113,3.1,3.8,71,0.00,,,0.00,WUHU216HW,2013-01-09 11:38:00,
2013-01-09 06:42:00,38.3,29.4,30.31,ESE,113,2.5,3.8,70,0.00,,,0.00,WUHU216HW,2013-01-09 11:42:00,
2013-01-09 06:48:00,38.5,29.6,30.32,SSE,158,2.9,4.0,70,0.00,,,0.00,WUHU216HW,2013-01-09 11:48:00,
2013-01-09 06:53:00,38.5,29.3,30.31,ESE,113,2.7,4.5,69,0.00,,,0.00,WUHU216HW,2013-01-09 11:53:00,
2013-01-09 06:58:00,38.5,29.3,30.31,SE,135,5.4,5.4,69,0.00,,,0.00,WUHU216HW,2013-01-09 11:58:00,
2013-01-09 07:03:00,38.7,29.8,30.31,SSE,158,3.1,5.4,70,0.00,,,0.00,WUHU216HW,2013-01-09 12:03:00,
2013-01-09 07:08:00,39.1,30.1,30.33,SSW,203,1.1,3.4,70,0.00,,,0.00,WUHU216HW,2013-01-09 12:08:00,
2013-01-09 07:13:00,39.2,30.2,30.31,ESE,113,1.6,3.4,70,0.00,,,0.00,WUHU216HW,2013-01-09 12:13:00,
2013-01-09 07:18:00,39.1,30.1,30.32,East,90,1.8,2.7,70,0.00,,,0.00,WUHU216HW,2013-01-09 12:18:00,
2013-01-09 07:23:00,39.4,30.8,30.32,SSW,203,1.6,3.4,71,0.00,,,0.00,WUHU216HW,2013-01-09 12:23:00,
2013-01-09 07:28:00,40.7,32.1,30.32,NNE,23,0.7,6.0,71,0.00,,,0.00,WUHU216HW,2013-01-09 12:28:00,
2013-01-09 07:33:00,42.3,33.3,30.33,South,180,2.7,6.0,70,0.00,,,0.00,WUHU216HW,2013-01-09 12:33:00,
2013-01-09 07:38:00,43.2,33.8,30.33,SE,135,3.4,5.1,69,0.00,,,0.00,WUHU216HW,2013-01-09 12:38:00,
2013-01-09 07:43:00,43.7,33.5,30.33,SE,135,4.3,7.2,67,0.00,,,0.00,WUHU216HW,2013-01-09 12:43:00,
2013-01-09 07:48:00,43.9,34.0,30.34,North,0,2.5,7.2,68,0.00,,,0.00,WUHU216HW,2013-01-09 12:48:00,
2013-01-09 07:53:00,43.6,33.8,30.34,SSW,203,3.4,4.7,68,0.00,,,0.00,WUHU216HW,2013-01-09 12:53:00,
2013-01-09 07:58:00,43.6,34.5,30.34,SSE,158,5.6,5.6,70,0.00,,,0.00,WUHU216HW,2013-01-09 12:58:00,
2013-01-09 08:03:00,43.4,34.3,30.34,South,180,2.5,5.6,70,0.00,,,0.00,WUHU216HW,2013-01-09 13:03:00,
2013-01-09 08:08:00,43.0,34.3,30.35,South,180,4.0,4.0,71,0.00,,,0.00,WUHU216HW,2013-01-09 13:08:00,
2013-01-09 08:13:00,43.0,34.7,30.34,SSW,203,2.2,4.0,72,0.01,,,0.00,WUHU216HW,2013-01-09 13:13:00,
2013-01-09 08:18:00,42.8,34.8,30.33,SSW,203,1.6,4.0,73,0.02,,,0.02,WUHU216HW,2013-01-09 13:18:00,
2013-01-09 08:23:00,42.7,35.7,30.34,South,180,2.5,3.8,76,0.02,,,0.02,WUHU216HW,2013-01-09 13:23:00,
2013-01-09 08:28:00,42.5,35.7,30.33,ESE,113,3.1,6.9,77,0.02,,,0.02,WUHU216HW,2013-01-09 13:28:00,
2013-01-09 08:33:00,42.5,35.7,30.31,SSE,158,4.0,6.9,77,0.02,,,0.02,WUHU216HW,2013-01-09 13:33:00,
2013-01-09 08:38:00,42.5,35.7,30.30,SE,135,2.5,5.4,77,0.02,,,0.02,WUHU216HW,2013-01-09 13:38:00,
2013-01-09 08:43:00,42.5,35.7,30.31,SSE,158,2.9,5.1,77,0.02,,,0.02,WUHU216HW,2013-01-09 13:43:00,
2013-01-09 08:48:00,42.5,35.7,30.31,WSW,248,1.3,5.1,77,0.02,,,0.02,WUHU216HW,2013-01-09 13:48:00,
2013-01-09 08:53:00,42.7,35.9,30.33,SE,135,0.9,5.1,77,0.02,,,0.02,WUHU216HW,2013-01-09 13:53:00,
2013-01-09 08:58:00,42.7,35.9,30.33,SE,135,5.8,5.8,77,0.02,,,0.02,WUHU216HW,2013-01-09 13:58:00,
2013-01-09 09:03:00,42.8,36.1,30.32,SSW,203,1.8,5.8,77,0.02,,,0.02,WUHU216HW,2013-01-09 14:03:00,
2013-01-09 09:08:00,42.8,36.1,30.34,SW,225,3.4,4.5,77,0.01,,,0.02,WUHU216HW,2013-01-09 14:08:00,
2013-01-09 09:13:00,42.8,36.1,30.35,SE,135,1.6,3.6,77,0.00,,,0.02,WUHU216HW,2013-01-09 14:13:00,
2013-01-09 09:18:00,43.0,36.3,30.33,SSE,158,1.1,4.7,77,0.00,,,0.02,WUHU216HW,2013-01-09 14:18:00,
2013-01-09 09:23:00,43.0,36.3,30.34,SSE,158,1.8,4.7,77,0.00,,,0.02,WUHU216HW,2013-01-09 14:23:00,
2013-01-09 09:28:00,43.0,36.3,30.34,South,180,5.1,5.1,77,0.00,,,0.02,WUHU216HW,2013-01-09 14:28:00,
2013-01-09 09:33:00,43.0,36.3,30.34,WSW,248,0.9,5.1,77,0.00,,,0.02,WUHU216HW,2013-01-09 14:33:00,
2013-01-09 09:38:00,42.8,36.1,30.35,South,180,1.8,3.4,77,0.00,,,0.02,WUHU216HW,2013-01-09 14:38:00,
2013-01-09 09:43:00,42.8,36.1,30.34,SSW,203,4.7,4.7,77,0.00,,,0.02,WUHU216HW,2013-01-09 14:43:00,
2013-01-09 09:48:00,42.8,36.1,30.33,South,180,1.6,4.7,77,0.00,,,0.02,WUHU216HW,2013-01-09 14:48:00,
2013-01-09 09:53:00,42.8,36.5,30.34,SW,225,1.3,2.9,78,0.00,,,0.02,WUHU216HW,2013-01-09 14:53:00,
2013-01-09 09:58:00,43.0,36.6,30.34,SW,225,3.1,4.0,78,0.00,,,0.02,WUHU216HW,2013-01-09 14:58:00,
2013-01-09 10:03:00,43.2,36.8,30.33,NNE,23,4.0,4.9,78,0.00,,,0.02,WUHU216HW,2013-01-09 15:03:00,
2013-01-09 10:08:00,43.6,36.8,30.34,WSW,248,3.6,6.7,77,0.00,,,0.02,WUHU216HW,2013-01-09 15:08:00,
2013-01-09 10:13:00,43.6,36.8,30.34,WSW,248,2.9,6.7,77,0.00,,,0.02,WUHU216HW,2013-01-09 15:13:00,
2013-01-09 10:18:00,43.7,37.0,30.34,WNW,293,3.8,5.6,77,0.00,,,0.02,WUHU216HW,2013-01-09 15:18:00,
2013-01-09 10:23:00,43.9,37.2,30.34,WSW,248,2.9,3.8,77,0.00,,,0.02,WUHU216HW,2013-01-09 15:23:00,
2013-01-09 10:28:00,44.1,37.4,30.34,ENE,68,1.8,4.0,77,0.00,,,0.02,WUHU216HW,2013-01-09 15:28:00,
2013-01-09 10:33:00,44.3,37.2,30.34,SSW,203,3.1,4.0,76,0.00,,,0.02,WUHU216HW,2013-01-09 15:33:00,
2013-01-09 10:38:00,44.5,37.4,30.34,SW,225,3.4,4.0,76,0.00,,,0.02,WUHU216HW,2013-01-09 15:38:00,
2013-01-09 10:43:00,44.6,37.5,30.33,South,180,4.3,4.3,76,0.00,,,0.02,WUHU216HW,2013-01-09 15:43:00,
2013-01-09 10:48:00,45.4,37.5,30.34,East,90,1.6,5.4,74,0.00,,,0.02,WUHU216HW,2013-01-09 15:48:00,
2013-01-09 10:53:00,45.9,38.1,30.35,WNW,293,1.8,5.4,74,0.00,,,0.02,WUHU216HW,2013-01-09 15:53:00,
2013-01-09 10:58:00,46.4,38.0,30.34,SW,225,3.4,4.7,72,0.00,,,0.02,WUHU216HW,2013-01-09 15:58:00,
2013-01-09 11:03:00,46.4,37.6,30.34,West,270,6.0,6.0,71,0.00,,,0.02,WUHU216HW,2013-01-09 16:03:00,
2013-01-09 11:08:00,46.8,37.6,30.35,SW,225,2.0,7.4,70,0.00,,,0.02,WUHU216HW,2013-01-09 16:08:00,
2013-01-09 11:13:00,47.0,37.4,30.35,NNE,23,1.3,7.4,69,0.00,,,0.02,WUHU216HW,2013-01-09 16:13:00,
2013-01-09 11:18:00,47.3,37.3,30.35,SSW,203,3.6,5.6,68,0.00,,,0.02,WUHU216HW,2013-01-09 16:18:00,
2013-01-09 11:23:00,47.7,37.6,30.35,SW,225,5.4,5.6,68,0.00,,,0.02,WUHU216HW,2013-01-09 16:23:00,
2013-01-09 11:28:00,47.7,36.9,30.35,SSE,158,5.4,6.5,66,0.00,,,0.02,WUHU216HW,2013-01-09 16:28:00,
2013-01-09 11:33:00,47.9,37.5,30.35,SE,135,2.0,6.5,67,0.00,,,0.02,WUHU216HW,2013-01-09 16:33:00,
2013-01-09 11:38:00,47.9,37.0,30.35,West,270,5.6,5.6,66,0.00,,,0.02,WUHU216HW,2013-01-09 16:38:00,
2013-01-09 11:43:00,47.9,36.6,30.35,SSW,203,5.4,5.6,65,0.00,,,0.02,WUHU216HW,2013-01-09 16:43:00,
2013-01-09 11:48:00,47.9,36.6,30.35,WSW,248,4.9,6.5,65,0.00,,,0.02,WUHU216HW,2013-01-09 16:48:00,
2013-01-09 11:53:00,47.9,36.6,30.35,WNW,293,4.0,8.5,65,0.00,,,0.02,WUHU216HW,2013-01-09 16:53:00,
2013-01-09 11:58:00,48.1,37.2,30.35,WSW,248,1.8,8.5,66,0.00,,,0.02,WUHU216HW,2013-01-09 16:58:00,
2013-01-09 12:03:00,48.4,37.2,30.35,WSW,248,1.8,5.4,65,0.00,,,0.02,WUHU216HW,2013-01-09 17:03:00,
2013-01-09 12:08:00,48.4,36.8,30.36,SSW,203,6.5,6.5,64,0.00,,,0.02,WUHU216HW,2013-01-09 17:08:00,
2013-01-09 12:13:00,48.2,36.6,30.36,SSW,203,1.8,6.5,64,0.00,,,0.02,WUHU216HW,2013-01-09 17:13:00,
2013-01-09 12:18:00,48.4,36.8,30.35,SSW,203,4.3,5.4,64,0.00,,,0.02,WUHU216HW,2013-01-09 17:18:00,
2013-01-09 12:23:00,48.4,36.8,30.34,SSE,158,7.6,7.6,64,0.00,,,0.02,WUHU216HW,2013-01-09 17:23:00,
2013-01-09 12:28:00,48.2,36.3,30.34,WSW,248,2.9,7.6,63,0.00,,,0.02,WUHU216HW,2013-01-09 17:28:00,
2013-01-09 12:33:00,48.4,36.4,30.35,WSW,248,4.7,7.4,63,0.00,,,0.02,WUHU216HW,2013-01-09 17:33:00,
2013-01-09 12:38:00,48.6,36.5,30.34,SSW,203,2.5,6.9,63,0.00,,,0.02,WUHU216HW,2013-01-09 17:38:00,
2013-01-09 12:43:00,48.6,36.2,30.34,South,180,1.8,6.9,62,0.00,,,0.02,WUHU216HW,2013-01-09 17:43:00,
2013-01-09 12:48:00,48.6,36.2,30.34,SSW,203,2.5,6.9,62,0.00,,,0.02,WUHU216HW,2013-01-09 17:48:00,
2013-01-09 12:53:00,48.4,36.4,30.33,South,180,4.9,6.5,63,0.00,,,0.02,WUHU216HW,2013-01-09 17:53:00,
2013-01-09 12:58:00,48.6,35.8,30.33,NNW,338,4.0,7.4,61,0.00,,,0.02,WUHU216HW,2013-01-09 17:58:00,
2013-01-09 13:03:00,48.6,36.2,30.33,WSW,248,3.6,7.4,62,0.00,,,0.02,WUHU216HW,2013-01-09 18:03:00,
2013-01-09 13:08:00,48.8,36.0,30.34,SSW,203,5.1,5.8,61,0.00,,,0.02,WUHU216HW,2013-01-09 18:08:00,
2013-01-09 13:13:00,49.1,35.9,30.33,SSW,203,1.6,5.8,60,0.00,,,0.02,WUHU216HW,2013-01-09 18:13:00,
2013-01-09 13:18:00,49.3,36.5,30.33,West,270,4.0,6.0,61,0.00,,,0.02,WUHU216HW,2013-01-09 18:18:00,
2013-01-09 13:23:00,49.5,36.3,30.33,SSW,203,2.9,6.0,60,0.00,,,0.02,WUHU216HW,2013-01-09 18:23:00,
2013-01-09 13:28:00,49.3,36.1,30.34,South,180,2.5,4.0,60,0.00,,,0.02,WUHU216HW,2013-01-09 18:28:00,
2013-01-09 13:33:00,49.3,35.7,30.33,SSW,203,5.4,5.6,59,0.00,,,0.02,WUHU216HW,2013-01-09 18:33:00,
2013-01-09 13:38:00,49.3,36.1,30.33,SW,225,1.1,5.6,60,0.00,,,0.02,WUHU216HW,2013-01-09 18:38:00,
2013-01-09 13:41:00,49.5,36.3,30.33,SSW,203,0.9,5.6,60,0.00,,,0.02,WUHU216HW,2013-01-09 18:41:00,
2013-01-09 13:42:00,49.7,36.4,30.34,NW,315,0.7,5.4,60,0.00,,,0.02,WUHU216HW,2013-01-09 18:42:00,
2013-01-09 13:44:00,49.7,35.9,30.33,ESE,113,1.1,5.8,59,0.00,,,0.02,WUHU216HW,2013-01-09 18:44:00,
2013-01-09 13:48:00,49.7,35.5,30.33,WSW,248,2.5,5.8,58,0.00,,,0.02,WUHU216HW,2013-01-09 18:48:00,
2013-01-09 13:49:00,49.7,35.5,30.33,SSW,203,2.0,5.8,58,0.00,,,0.02,WUHU216HW,2013-01-09 18:49:00,
2013-01-09 13:54:00,49.9,35.2,30.33,WSW,248,4.0,4.0,57,0.00,,,0.02,WUHU216HW,2013-01-09 18:54:00,
2013-01-09 13:58:00,49.9,35.6,30.34,West,270,5.1,5.1,58,0.00,,,0.02,WUHU216HW,2013-01-09 18:58:00,
2013-01-09 14:03:00,49.7,34.6,30.35,SW,225,4.3,5.4,56,0.00,,,0.02,WUHU216HW,2013-01-09 19:03:00,
2013-01-09 14:08:00,49.3,34.2,30.34,SSW,203,4.3,5.6,56,0.00,,,0.02,WUHU216HW,2013-01-09 19:08:00,
2013-01-09 14:13:00,49.3,34.8,30.35,WSW,248,1.6,6.3,57,0.00,,,0.02,WUHU216HW,2013-01-09 19:13:00,
2013-01-09 14:18:00,49.3,34.2,30.35,South,180,3.8,6.3,56,0.00,,,0.02,WUHU216HW,2013-01-09 19:18:00,
2013-01-09 14:23:00,49.7,34.6,30.36,SSW,203,3.8,5.4,56,0.00,,,0.02,WUHU216HW,2013-01-09 19:23:00,
2013-01-09 14:28:00,49.3,34.2,30.36,SW,225,2.5,5.4,56,0.00,,,0.02,WUHU216HW,2013-01-09 19:28:00,
2013-01-09 14:33:00,49.3,34.2,30.36,WSW,248,4.5,4.7,56,0.00,,,0.02,WUHU216HW,2013-01-09 19:33:00,
2013-01-09 14:38:00,49.5,33.9,30.36,WSW,248,2.9,4.5,55,0.00,,,0.02,WUHU216HW,2013-01-09 19:38:00,
2013-01-09 14:43:00,49.5,34.4,30.36,SSW,203,4.0,4.5,56,0.00,,,0.02,WUHU216HW,2013-01-09 19:43:00,
2013-01-09 14:48:00,49.3,33.8,30.36,WSW,248,1.8,5.1,55,0.00,,,0.02,WUHU216HW,2013-01-09 19:48:00,
2013-01-09 14:53:00,49.3,33.8,30.36,West,270,2.9,6.5,55,0.00,,,0.02,WUHU216HW,2013-01-09 19:53:00,
2013-01-09 14:58:00,49.1,33.7,30.37,SW,225,6.0,6.5,55,0.00,,,0.02,WUHU216HW,2013-01-09 19:58:00,
2013-01-09 15:03:00,48.8,33.8,30.37,West,270,2.7,6.0,56,0.00,,,0.02,WUHU216HW,2013-01-09 20:03:00,
2013-01-09 15:08:00,48.8,33.8,30.37,WSW,248,3.4,5.8,56,0.00,,,0.02,WUHU216HW,2013-01-09 20:08:00,
2013-01-09 15:13:00,48.6,33.6,30.38,WSW,248,1.6,5.8,56,0.00,,,0.02,WUHU216HW,2013-01-09 20:13:00,
2013-01-09 15:18:00,48.4,33.8,30.38,SW,225,1.8,5.4,57,0.00,,,0.02,WUHU216HW,2013-01-09 20:18:00,
2013-01-09 15:24:00,48.4,33.4,30.38,SW,225,6.5,6.5,56,0.00,,,0.02,WUHU216HW,2013-01-09 20:24:00,
2013-01-09 15:29:00,48.2,33.7,30.38,East,90,1.1,6.5,57,0.00,,,0.02,WUHU216HW,2013-01-09 20:29:00,
2013-01-09 15:34:00,48.1,34.0,30.39,West,270,2.2,5.1,58,0.00,,,0.02,WUHU216HW,2013-01-09 20:34:00,
2013-01-09 15:39:00,47.9,33.4,30.39,NW,315,1.8,4.7,57,0.00,,,0.02,WUHU216HW,2013-01-09 20:39:00,
2013-01-09 15:44:00,47.7,33.7,30.40,WSW,248,3.1,4.3,58,0.00,,,0.02,WUHU216HW,2013-01-09 20:44:00,
2013-01-09 15:49:00,47.7,34.1,30.40,West,270,2.7,3.6,59,0.00,,,0.02,WUHU216HW,2013-01-09 20:49:00,
2013-01-09 15:54:00,47.5,33.9,30.40,SSW,203,3.8,4.0,59,0.00,,,0.02,WUHU216HW,2013-01-09 20:54:00,
2013-01-09 15:59:00,47.3,34.2,30.39,SSW,203,2.2,4.0,60,0.00,,,0.02,WUHU216HW,2013-01-09 20:59:00,
2013-01-09 16:04:00,47.2,33.6,30.40,SW,225,2.9,4.0,59,0.00,,,0.02,WUHU216HW,2013-01-09 21:04:00,
2013-01-09 16:09:00,47.2,34.0,30.40,SSW,203,2.2,4.0,60,0.00,,,0.02,WUHU216HW,2013-01-09 21:09:00,
2013-01-09 16:14:00,47.2,33.6,30.40,SW,225,7.4,7.4,59,0.00,,,0.02,WUHU216HW,2013-01-09 21:14:00,
2013-01-09 16:19:00,46.8,33.2,30.41,SE,135,1.1,7.6,59,0.00,,,0.02,WUHU216HW,2013-01-09 21:19:00,
2013-01-09 16:24:00,46.8,33.7,30.42,West,270,1.3,7.6,60,0.00,,,0.02,WUHU216HW,2013-01-09 21:24:00,
2013-01-09 16:29:00,46.4,32.9,30.42,South,180,3.4,5.6,59,0.00,,,0.02,WUHU216HW,2013-01-09 21:29:00,
2013-01-09 16:34:00,46.1,32.9,30.43,WSW,248,2.5,5.6,60,0.00,,,0.02,WUHU216HW,2013-01-09 21:34:00,
2013-01-09 16:39:00,46.1,33.4,30.43,SW,225,2.2,3.4,61,0.00,,,0.02,WUHU216HW,2013-01-09 21:39:00,
2013-01-09 16:44:00,45.7,33.4,30.43,SSW,203,1.8,6.5,62,0.00,,,0.02,WUHU216HW,2013-01-09 21:44:00,
2013-01-09 16:49:00,45.4,33.1,30.43,NW,315,1.1,6.9,62,0.00,,,0.02,WUHU216HW,2013-01-09 21:49:00,
2013-01-09 16:54:00,45.2,33.0,30.43,WSW,248,1.8,6.9,62,0.00,,,0.02,WUHU216HW,2013-01-09 21:54:00,
2013-01-09 16:59:00,45.0,33.1,30.43,NW,315,0.4,5.4,63,0.00,,,0.02,WUHU216HW,2013-01-09 21:59:00,
2013-01-09 17:04:00,45.0,33.1,30.43,SE,135,2.0,5.4,63,0.00,,,0.02,WUHU216HW,2013-01-09 22:04:00,
2013-01-09 17:09:00,44.6,32.9,30.43,SW,225,1.8,3.1,63,0.00,,,0.02,WUHU216HW,2013-01-09 22:09:00,
2013-01-09 17:14:00,44.5,32.7,30.43,South,180,4.5,4.5,63,0.00,,,0.02,WUHU216HW,2013-01-09 22:14:00,
2013-01-09 17:19:00,44.3,32.5,30.43,South,180,1.8,4.5,63,0.00,,,0.02,WUHU216HW,2013-01-09 22:19:00,
2013-01-09 17:24:00,44.3,32.5,30.44,SW,225,1.6,4.0,63,0.00,,,0.02,WUHU216HW,2013-01-09 22:24:00,
2013-01-09 17:29:00,43.9,32.1,30.44,SE,135,1.3,3.4,63,0.00,,,0.02,WUHU216HW,2013-01-09 22:29:00,
2013-01-09 17:34:00,43.9,31.8,30.45,WSW,248,3.1,3.1,62,0.00,,,0.02,WUHU216HW,2013-01-09 22:34:00,
2013-01-09 17:39:00,43.9,31.8,30.46,South,180,2.5,3.4,62,0.00,,,0.02,WUHU216HW,2013-01-09 22:39:00,
2013-01-09 17:44:00,43.7,31.1,30.46,SSW,203,4.5,4.5,61,0.00,,,0.02,WUHU216HW,2013-01-09 22:44:00,
2013-01-09 17:49:00,43.9,31.3,30.46,WSW,248,2.2,4.5,61,0.00,,,0.02,WUHU216HW,2013-01-09 22:49:00,
2013-01-09 17:54:00,43.7,31.1,30.45,ENE,68,1.8,3.1,61,0.00,,,0.02,WUHU216HW,2013-01-09 22:54:00,
2013-01-09 17:59:00,43.4,31.2,30.46,South,180,1.6,2.0,62,0.00,,,0.02,WUHU216HW,2013-01-09 22:59:00,
2013-01-09 18:04:00,43.2,31.1,30.46,West,270,0.7,3.4,62,0.00,,,0.02,WUHU216HW,2013-01-09 23:04:00,
2013-01-09 18:09:00,43.2,31.4,30.47,South,180,1.3,3.4,63,0.00,,,0.02,WUHU216HW,2013-01-09 23:09:00,
2013-01-09 18:14:00,43.0,31.2,30.47,SW,225,4.5,4.5,63,0.00,,,0.02,WUHU216HW,2013-01-09 23:14:00,
2013-01-09 18:19:00,42.8,31.5,30.47,SSW,203,3.1,4.5,64,0.00,,,0.02,WUHU216HW,2013-01-09 23:19:00,
2013-01-09 18:24:00,42.8,31.9,30.48,SW,225,0.9,4.0,65,0.00,,,0.02,WUHU216HW,2013-01-09 23:24:00,
2013-01-09 18:29:00,42.7,32.0,30.48,SSE,158,1.8,2.7,66,0.00,,,0.02,WUHU216HW,2013-01-09 23:29:00,
2013-01-09 18:34:00,42.3,32.1,30.49,SSE,158,0.9,2.7,67,0.00,,,0.02,WUHU216HW,2013-01-09 23:34:00,
2013-01-09 18:39:00,42.1,32.3,30.49,SSW,203,0.4,2.2,68,0.00,,,0.02,WUHU216HW,2013-01-09 23:39:00,
2013-01-09 18:44:00,41.9,31.8,30.49,SSE,158,1.3,2.2,67,0.00,,,0.02,WUHU216HW,2013-01-09 23:44:00,
2013-01-09 18:49:00,41.9,32.1,30.50,WSW,248,2.9,2.9,68,0.00,,,0.02,WUHU216HW,2013-01-09 23:49:00,
2013-01-09 18:54:00,41.8,32.0,30.50,WSW,248,1.3,2.9,68,0.00,,,0.02,WUHU216HW,2013-01-09 23:54:00,
2013-01-09 18:59:00,41.6,31.8,30.50,SSW,203,0.9,1.8,68,0.00,,,0.02,WUHU216HW,2013-01-09 23:59:00,
2013-01-09 19:04:00,41.4,32.1,30.50,West,270,1.6,2.2,69,0.00,,,0.02,WUHU216HW,2013-01-10 00:04:00,
2013-01-09 19:09:00,41.4,32.1,30.51,ESE,113,1.8,2.2,69,0.00,,,0.02,WUHU216HW,2013-01-10 00:09:00,
2013-01-09 19:14:00,41.4,32.1,30.51,SW,225,1.1,2.7,69,0.00,,,0.02,WUHU216HW,2013-01-10 00:14:00,
2013-01-09 19:19:00,41.4,32.1,30.51,SSW,203,1.8,2.7,69,0.00,,,0.02,WUHU216HW,2013-01-10 00:19:00,
2013-01-09 19:24:00,41.2,32.2,30.51,SW,225,1.1,4.0,70,0.00,,,0.02,WUHU216HW,2013-01-10 00:24:00,
2013-01-09 19:29:00,41.0,32.0,30.52,SW,225,1.6,4.0,70,0.00,,,0.02,WUHU216HW,2013-01-10 00:29:00,
2013-01-09 19:34:00,41.0,32.0,30.52,SSW,203,1.6,2.7,70,0.00,,,0.02,WUHU216HW,2013-01-10 00:34:00,
2013-01-09 19:39:00,41.0,32.0,30.53,SSW,203,1.8,2.2,70,0.00,,,0.02,WUHU216HW,2013-01-10 00:39:00,
2013-01-09 19:44:00,40.9,31.9,30.54,West,270,1.1,2.0,70,0.00,,,0.02,WUHU216HW,2013-01-10 00:44:00,
2013-01-09 19:49:00,40.9,32.2,30.54,South,180,0.7,4.5,71,0.00,,,0.02,WUHU216HW,2013-01-10 00:49:00,
2013-01-09 19:54:00,40.9,31.9,30.54,SSW,203,0.9,4.5,70,0.00,,,0.02,WUHU216HW,2013-01-10 00:54:00,
2013-01-09 19:59:00,40.7,31.7,30.54,SSE,158,2.5,2.5,70,0.00,,,0.02,WUHU216HW,2013-01-10 00:59:00,
2013-01-09 20:04:00,40.5,31.9,30.54,WNW,293,0.0,2.5,71,0.00,,,0.02,WUHU216HW,2013-01-10 01:04:00,
2013-01-09 20:09:00,40.3,31.7,30.54,SW,225,0.7,2.9,71,0.00,,,0.02,WUHU216HW,2013-01-10 01:09:00,
2013-01-09 20:14:00,40.3,31.7,30.54,West,270,0.9,2.9,71,0.00,,,0.02,WUHU216HW,2013-01-10 01:14:00,
2013-01-09 20:19:00,40.1,31.5,30.54,SSW,203,0.9,2.2,71,0.00,,,0.02,WUHU216HW,2013-01-10 01:19:00,
2013-01-09 20:24:00,40.1,31.5,30.54,WSW,248,0.4,2.2,71,0.00,,,0.02,WUHU216HW,2013-01-10 01:24:00,
2013-01-09 20:29:00,40.0,31.3,30.56,NW,315,0.2,1.8,71,0.00,,,0.02,WUHU216HW,2013-01-10 01:29:00,
2013-01-09 20:34:00,39.8,31.2,30.55,SW,225,0.7,1.8,71,0.00,,,0.02,WUHU216HW,2013-01-10 01:34:00,
2013-01-09 20:39:00,39.6,31.3,30.56,SW,225,1.3,2.0,72,0.00,,,0.02,WUHU216HW,2013-01-10 01:39:00,
2013-01-09 20:44:00,39.2,30.6,30.56,WSW,248,1.6,2.0,71,0.00,,,0.02,WUHU216HW,2013-01-10 01:44:00,
2013-01-09 20:49:00,39.2,31.2,30.56,SSW,203,0.7,1.6,73,0.00,,,0.02,WUHU216HW,2013-01-10 01:49:00,
2013-01-09 20:54:00,39.1,30.8,30.56,SSE,158,0.7,1.3,72,0.00,,,0.02,WUHU216HW,2013-01-10 01:54:00,
2013-01-09 20:59:00,39.1,31.2,30.56,SW,225,0.4,1.6,73,0.00,,,0.02,WUHU216HW,2013-01-10 01:59:00,
2013-01-09 21:04:00,39.2,31.0,30.57,SSW,203,0.0,2.5,72,0.00,,,0.02,WUHU216HW,2013-01-10 02:04:00,
2013-01-09 21:09:00,39.2,31.2,30.57,WSW,248,0.4,2.5,73,0.00,,,0.02,WUHU216HW,2013-01-10 02:09:00,
2013-01-09 21:14:00,39.1,30.8,30.57,SW,225,0.0,0.7,72,0.00,,,0.02,WUHU216HW,2013-01-10 02:14:00,
2013-01-09 21:19:00,38.9,31.0,30.57,NNW,338,1.1,1.1,73,0.00,,,0.02,WUHU216HW,2013-01-10 02:19:00,
2013-01-09 21:24:00,38.7,31.2,30.57,SW,225,0.7,1.3,74,0.00,,,0.02,WUHU216HW,2013-01-10 02:24:00,
2013-01-09 21:29:00,38.9,31.2,30.57,South,180,0.9,2.0,74,0.00,,,0.02,WUHU216HW,2013-01-10 02:29:00,
2013-01-09 21:34:00,39.1,31.4,30.57,SSW,203,0.2,2.0,74,0.00,,,0.02,WUHU216HW,2013-01-10 02:34:00,
2013-01-09 21:39:00,39.2,31.2,30.57,WNW,293,2.5,2.5,73,0.00,,,0.02,WUHU216HW,2013-01-10 02:39:00,
2013-01-09 21:44:00,38.9,31.2,30.58,SSE,158,1.8,2.5,74,0.00,,,0.02,WUHU216HW,2013-01-10 02:44:00,
2013-01-09 21:49:00,38.9,31.0,30.58,WSW,248,0.2,2.5,73,0.00,,,0.02,WUHU216HW,2013-01-10 02:49:00,
2013-01-09 21:54:00,38.5,31.0,30.58,WNW,293,0.2,2.2,74,0.00,,,0.02,WUHU216HW,2013-01-10 02:54:00,
2013-01-09 21:59:00,38.5,31.0,30.58,SW,225,0.0,3.4,74,0.00,,,0.02,WUHU216HW,2013-01-10 02:59:00,
2013-01-09 22:04:00,38.5,31.2,30.58,West,270,1.1,3.4,75,0.00,,,0.02,WUHU216HW,2013-01-10 03:04:00,
2013-01-09 22:09:00,38.5,31.2,30.58,South,180,0.4,1.8,75,0.00,,,0.02,WUHU216HW,2013-01-10 03:09:00,
2013-01-09 22:14:00,38.5,31.2,30.59,SW,225,0.2,2.0,75,0.00,,,0.02,WUHU216HW,2013-01-10 03:14:00,
2013-01-09 22:19:00,38.5,31.2,30.59,SSW,203,0.2,2.0,75,0.00,,,0.02,WUHU216HW,2013-01-10 03:19:00,
2013-01-09 22:24:00,38.5,31.2,30.59,West,270,2.2,2.2,75,0.00,,,0.02,WUHU216HW,2013-01-10 03:24:00,
2013-01-09 22:29:00,38.5,31.2,30.59,SSW,203,0.7,2.2,75,0.00,,,0.02,WUHU216HW,2013-01-10 03:29:00,
2013-01-09 22:34:00,38.3,30.8,30.60,NW,315,0.0,1.6,74,0.00,,,0.02,WUHU216HW,2013-01-10 03:34:00,
2013-01-09 22:39:00,38.3,31.4,30.60,SW,225,1.1,2.2,76,0.00,,,0.02,WUHU216HW,2013-01-10 03:39:00,
2013-01-09 22:44:00,38.2,31.2,30.60,SE,135,3.4,3.4,76,0.00,,,0.02,WUHU216HW,2013-01-10 03:44:00,
2013-01-09 22:49:00,38.2,31.0,30.61,West,270,0.2,3.4,75,0.00,,,0.02,WUHU216HW,2013-01-10 03:49:00,
2013-01-09 22:54:00,38.0,31.1,30.61,SW,225,0.4,1.3,76,0.00,,,0.02,WUHU216HW,2013-01-10 03:54:00,
2013-01-09 22:59:00,38.0,31.1,30.61,SSW,203,0.7,2.2,76,0.00,,,0.02,WUHU216HW,2013-01-10 03:59:00,
2013-01-09 23:04:00,37.8,30.6,30.62,South,180,0.4,2.2,75,0.00,,,0.02,WUHU216HW,2013-01-10 04:04:00,
2013-01-09 23:09:00,37.8,30.6,30.62,West,270,0.2,1.8,75,0.00,,,0.02,WUHU216HW,2013-01-10 04:09:00,
2013-01-09 23:14:00,37.6,30.4,30.62,SSE,158,0.2,1.8,75,0.00,,,0.02,WUHU216HW,2013-01-10 04:14:00,